Time;durP1;ratioP1;P1;durP2;ratioP2;P2;SDS_P1;SDS_P2;PMS_P1;PMS_P2;Temp;Humidity;BMP_temperature;BMP_pressure;BME280_temperature;BME280_humidity;BME280_pressure;Samples;Min_cycle;Max_cycle;Signal;HPM_P1;HPM_P2
2024/01/24 00:02:38;;;;;;;44.73;29.73;;;;;1.90;97984.00;;;;4996700;28;20481;-73
2024/01/24 00:05:27;;;;;;;14.53;12.07;;;;;1.70;97981.00;;;;4997377;28;20994;-73
2024/01/24 00:08:16;;;;;;;11.20;8.10;;;;;1.40;97981.00;;;;5000553;28;20429;-73
2024/01/24 00:11:06;;;;;;;15.03;9.03;;;;;1.80;97977.00;;;;5002421;28;20449;-72
2024/01/24 00:13:56;;;;;;;16.20;9.87;;;;;1.70;97974.00;;;;5001906;28;20436;-73
2024/01/24 00:16:45;;;;;;;16.17;10.07;;;;;1.80;97973.00;;;;5000729;28;20441;-72
2024/01/24 00:19:34;;;;;;;28.00;14.47;;;;;2.20;97974.00;;;;5002858;28;20425;-72
2024/01/24 00:22:24;;;;;;;24.40;12.00;;;;;1.90;97975.00;;;;4996658;28;20476;-72
2024/01/24 00:25:13;;;;;;;33.47;15.70;;;;;1.90;97968.00;;;;4999663;28;20448;-72
2024/01/24 00:28:02;;;;;;;15.77;9.40;;;;;1.90;97956.00;;;;5000686;28;20425;-72
2024/01/24 00:30:53;;;;;;;15.00;8.80;;;;;1.90;97953.00;;;;5001285;28;20422;-72
2024/01/24 00:33:42;;;;;;;21.17;10.87;;;;;1.00;97938.00;;;;4997017;28;20426;-74
2024/01/24 00:36:31;;;;;;;23.83;10.63;;;;;1.20;97937.00;;;;4996447;28;20421;-72
2024/01/24 00:39:20;;;;;;;13.80;7.97;;;;;1.60;97940.00;;;;4996103;28;20938;-71
2024/01/24 00:42:09;;;;;;;15.97;9.20;;;;;1.80;97930.00;;;;5001429;28;20527;-70
2024/01/24 00:44:58;;;;;;;13.80;8.67;;;;;2.00;97942.00;;;;4998907;28;20524;-72
2024/01/24 00:47:49;;;;;;;15.67;9.43;;;;;1.50;97929.00;;;;5003389;28;20432;-73
2024/01/24 00:50:38;;;;;;;22.07;11.47;;;;;1.40;97931.00;;;;4997007;28;20456;-69
2024/01/24 00:53:27;;;;;;;16.73;10.37;;;;;1.60;97922.00;;;;4996822;28;20440;-72
2024/01/24 00:56:17;;;;;;;18.10;10.40;;;;;2.30;97937.00;;;;4996340;28;20425;-72
2024/01/24 00:59:06;;;;;;;17.07;11.53;;;;;2.40;97934.00;;;;4999679;28;20428;-72
2024/01/24 01:01:55;;;;;;;17.93;12.53;;;;;2.10;97930.00;;;;5000071;28;20850;-71
2024/01/24 01:04:45;;;;;;;28.63;15.73;;;;;2.10;97935.00;;;;4998545;28;20428;-72
2024/01/24 01:07:34;;;;;;;23.37;14.53;;;;;2.00;97923.00;;;;4997387;28;20425;-71
2024/01/24 01:10:23;;;;;;;14.67;12.20;;;;;1.90;97922.00;;;;4995513;28;20421;-71
2024/01/24 01:13:13;;;;;;;19.40;14.50;;;;;1.80;97894.00;;;;4999231;28;20457;-70
2024/01/24 01:16:03;;;;;;;18.87;14.40;;;;;1.10;97888.00;;;;4998343;28;20430;-73
2024/01/24 01:18:52;;;;;;;18.33;15.03;;;;;1.60;97890.00;;;;5002180;28;20957;-71
2024/01/24 01:21:42;;;;;;;27.23;17.40;;;;;1.60;97889.00;;;;4999510;28;21008;-70
2024/01/24 01:24:32;;;;;;;28.50;17.27;;;;;1.60;97877.00;;;;5001486;28;20425;-72
2024/01/24 01:27:22;;;;;;;18.80;14.63;;;;;1.40;97883.00;;;;4996079;28;20421;-70
2024/01/24 01:30:11;;;;;;;18.63;13.30;;;;;1.60;97883.00;;;;4997310;28;20430;-73
2024/01/24 01:33:01;;;;;;;22.33;16.47;;;;;1.60;97880.00;;;;4999343;28;20468;-70
2024/01/24 01:35:50;;;;;;;22.20;16.17;;;;;1.80;97877.00;;;;5005483;28;20438;-71
2024/01/24 01:38:41;;;;;;;26.17;16.83;;;;;2.20;97874.00;;;;4999612;28;20463;-71
2024/01/24 01:41:30;;;;;;;18.23;15.50;;;;;1.80;97866.00;;;;4995999;28;20468;-72
2024/01/24 01:44:19;;;;;;;15.97;14.40;;;;;2.20;97850.00;;;;5003834;28;20452;-72
2024/01/24 01:47:10;;;;;;;21.33;18.53;;;;;2.40;97849.00;;;;5002805;28;20434;-72
2024/01/24 01:49:59;;;;;;;23.93;19.60;;;;;2.20;97837.00;;;;5003930;28;20966;-72
2024/01/24 01:52:49;;;;;;;24.07;20.93;;;;;1.70;97844.00;;;;5003591;28;20442;-73
2024/01/24 01:55:39;;;;;;;30.60;22.43;;;;;2.10;97840.00;;;;4999010;28;20429;-71
2024/01/24 01:58:28;;;;;;;29.33;23.00;;;;;2.30;97854.00;;;;5003859;28;20421;-71
2024/01/24 02:01:17;;;;;;;25.83;21.00;;;;;2.50;97852.00;;;;5017714;28;20429;-71
2024/01/24 02:04:07;;;;;;;32.53;23.60;;;;;2.50;97857.00;;;;5001603;28;20425;-71
2024/01/24 02:06:56;;;;;;;28.43;25.37;;;;;2.60;97844.00;;;;5003769;28;20422;-71
2024/01/24 02:09:46;;;;;;;41.90;30.63;;;;;2.30;97836.00;;;;5002495;28;20946;-71
2024/01/24 02:12:36;;;;;;;37.30;29.27;;;;;2.00;97828.00;;;;5000929;28;20795;-71
2024/01/24 02:15:26;;;;;;;33.33;29.03;;;;;2.60;97829.00;;;;5001569;28;20481;-72
2024/01/24 02:18:15;;;;;;;34.50;29.67;;;;;2.40;97818.00;;;;5000024;28;20425;-71
2024/01/24 02:21:05;;;;;;;40.27;32.60;;;;;2.30;97815.00;;;;5003238;28;20434;-71
2024/01/24 02:23:55;;;;;;;34.23;29.07;;;;;2.60;97811.00;;;;4999144;28;20469;-70
2024/01/24 02:26:46;;;;;;;41.37;31.87;;;;;2.60;97805.00;;;;5000936;28;20540;-71
2024/01/24 02:29:35;;;;;;;51.23;37.97;;;;;2.60;97791.00;;;;4998416;28;20425;-71
2024/01/24 02:32:24;;;;;;;63.47;42.60;;;;;1.90;97776.00;;;;4997237;28;20448;-71
2024/01/24 02:35:13;;;;;;;68.03;43.17;;;;;1.90;97780.00;;;;4998611;28;20454;-72
2024/01/24 02:38:02;;;;;;;145.90;52.27;;;;;1.90;97782.00;;;;5005443;28;20426;-71
2024/01/24 02:40:51;;;;;;;36.47;30.47;;;;;2.40;97780.00;;;;4998831;28;20421;-72
2024/01/24 02:43:42;;;;;;;46.70;35.63;;;;;2.50;97783.00;;;;4998488;28;20477;-72
2024/01/24 02:46:31;;;;;;;71.00;44.03;;;;;2.30;97777.00;;;;4996933;28;21328;-72
2024/01/24 02:49:20;;;;;;;288.53;66.77;;;;;2.10;97750.00;;;;5004384;28;20428;-71
2024/01/24 02:52:09;;;;;;;40.30;32.83;;;;;2.00;97745.00;;;;5004651;28;21048;-72
2024/01/24 02:54:58;;;;;;;41.40;32.93;;;;;2.20;97737.00;;;;5005789;28;20430;-72
2024/01/24 02:57:48;;;;;;;51.13;37.00;;;;;2.20;97726.00;;;;5002497;28;20434;-72
2024/01/24 03:00:39;;;;;;;301.37;73.70;;;;;2.10;97720.00;;;;4998645;28;20425;-72
2024/01/24 03:03:28;;;;;;;31.30;28.00;;;;;2.40;97717.00;;;;4998424;28;20542;-72
2024/01/24 03:06:17;;;;;;;63.40;42.50;;;;;2.40;97730.00;;;;4997820;28;20479;-72
2024/01/24 03:09:07;;;;;;;261.77;66.13;;;;;2.60;97728.00;;;;5017153;28;20437;-71
2024/01/24 03:11:56;;;;;;;134.50;57.23;;;;;2.60;97723.00;;;;5002093;28;20445;-72
2024/01/24 03:14:45;;;;;;;36.33;29.07;;;;;2.20;97725.00;;;;5000585;28;20417;-72
2024/01/24 03:17:36;;;;;;;46.67;34.77;;;;;2.00;97726.00;;;;4994766;28;20931;-72
2024/01/24 03:20:25;;;;;;;60.63;41.00;;;;;1.90;97716.00;;;;4997802;28;20429;-71
2024/01/24 03:23:16;;;;;;;74.13;45.57;;;;;1.80;97704.00;;;;5001804;28;20472;-71
2024/01/24 03:26:06;;;;;;;109.30;57.40;;;;;1.90;97698.00;;;;5002974;28;20433;-72
2024/01/24 03:28:55;;;;;;;118.43;55.67;;;;;2.30;97698.00;;;;4999594;28;20423;-72
2024/01/24 03:31:44;;;;;;;123.67;60.60;;;;;2.20;97697.00;;;;4999063;28;20435;-72
2024/01/24 03:34:35;;;;;;;142.17;64.30;;;;;2.20;97695.00;;;;4997068;28;21088;-71
2024/01/24 03:37:24;;;;;;;103.57;52.53;;;;;2.20;97698.00;;;;5000962;28;20439;-71
2024/01/24 03:40:13;;;;;;;105.70;54.03;;;;;2.00;97682.00;;;;5003501;28;20440;-70
2024/01/24 03:43:02;;;;;;;103.90;53.27;;;;;2.50;97679.00;;;;4997393;28;20470;-71
2024/01/24 03:45:51;;;;;;;126.87;57.80;;;;;2.70;97677.00;;;;4999216;28;20433;-71
2024/01/24 03:48:40;;;;;;;142.30;62.77;;;;;2.60;97672.00;;;;4998103;28;20429;-72
2024/01/24 03:51:31;;;;;;;221.80;67.40;;;;;2.20;97663.00;;;;5001545;28;20441;-72
2024/01/24 03:54:22;;;;;;;47.97;36.47;;;;;2.30;97652.00;;;;4998901;28;20796;-72
2024/01/24 03:57:11;;;;;;;20.33;18.20;;;;;2.20;97648.00;;;;5001339;28;20429;-72
2024/01/24 04:00:00;;;;;;;15.03;9.57;;;;;2.20;97636.00;;;;4998689;28;20425;-71
2024/01/24 04:02:49;;;;;;;13.40;7.97;;;;;1.70;97626.00;;;;4996794;28;20852;-73
2024/01/24 04:05:38;;;;;;;18.90;9.60;;;;;2.30;97619.00;;;;4996940;28;20827;-72
2024/01/24 04:08:28;;;;;;;12.30;6.90;;;;;2.10;97614.00;;;;5001304;28;20422;-73
2024/01/24 04:11:17;;;;;;;12.53;6.17;;;;;1.40;97593.00;;;;5001579;28;20811;-72
2024/01/24 04:14:07;;;;;;;17.40;8.03;;;;;2.10;97585.00;;;;4997346;28;20432;-71
2024/01/24 04:16:57;;;;;;;13.57;6.17;;;;;2.30;97589.00;;;;4994325;28;20425;-71
2024/01/24 04:19:46;;;;;;;25.27;10.17;;;;;2.20;97588.00;;;;5000519;28;20440;-72
2024/01/24 04:22:35;;;;;;;29.27;11.73;;;;;2.10;97593.00;;;;4994241;28;21026;-72
2024/01/24 04:25:26;;;;;;;8.83;5.60;;;;;0.90;97596.00;;;;4996869;28;20492;-72
2024/01/24 04:28:15;;;;;;;13.00;6.60;;;;;1.40;97594.00;;;;5003388;28;20440;-71
2024/01/24 04:31:05;;;;;;;18.70;7.70;;;;;1.60;97596.00;;;;4999987;28;20434;-71
2024/01/24 04:33:55;;;;;;;11.03;5.23;;;;;2.00;97581.00;;;;5000655;28;20939;-71
2024/01/24 04:36:44;;;;;;;20.23;8.30;;;;;1.60;97575.00;;;;5003238;28;20874;-70
2024/01/24 04:39:34;;;;;;;20.43;8.70;;;;;1.90;97568.00;;;;5001563;28;20424;-71
2024/01/24 04:42:24;;;;;;;30.47;13.27;;;;;2.00;97556.00;;;;4995037;28;20451;-71
2024/01/24 04:45:15;;;;;;;29.90;12.00;;;;;1.90;97570.00;;;;4998107;28;20438;-71
2024/01/24 04:48:06;;;;;;;14.43;6.87;;;;;1.50;97553.00;;;;4995396;28;20426;-71
2024/01/24 04:50:55;;;;;;;8.80;6.57;;;;;1.60;97548.00;;;;4999435;28;21293;-71
2024/01/24 04:53:44;;;;;;;15.70;7.87;;;;;0.90;97549.00;;;;4998116;28;20444;-69
2024/01/24 04:56:34;;;;;;;14.40;7.73;;;;;0.60;97535.00;;;;4997418;28;20464;-71
2024/01/24 04:59:25;;;;;;;12.53;6.63;;;;;0.60;97525.00;;;;5000200;28;20455;-73
2024/01/24 05:02:14;;;;;;;23.20;9.90;;;;;1.00;97539.00;;;;4995856;28;20480;-72
2024/01/24 05:05:06;;;;;;;17.73;7.97;;;;;0.40;97512.00;;;;4997776;28;20469;-69
2024/01/24 05:07:55;;;;;;;10.57;5.07;;;;;0.70;97533.00;;;;4988926;28;20441;-74
2024/01/24 05:10:45;;;;;;;21.53;8.10;;;;;1.00;97525.00;;;;5000409;28;20496;-73
2024/01/24 05:13:34;;;;;;;26.63;10.50;;;;;1.60;97536.00;;;;4996469;28;20445;-72
2024/01/24 05:16:24;;;;;;;16.47;7.37;;;;;1.70;97537.00;;;;5004186;28;20491;-72
2024/01/24 05:19:13;;;;;;;15.60;7.30;;;;;1.80;97523.00;;;;5003215;28;20449;-72
2024/01/24 05:22:03;;;;;;;15.23;7.73;;;;;1.60;97525.00;;;;5004325;28;20854;-72
2024/01/24 05:24:52;;;;;;;14.60;8.10;;;;;1.60;97518.00;;;;5003802;28;20461;-70
2024/01/24 05:27:41;;;;;;;24.33;11.23;;;;;1.80;97502.00;;;;5001002;28;20445;-70
2024/01/24 05:30:30;;;;;;;19.27;10.40;;;;;1.50;97495.00;;;;4995215;28;20472;-73
2024/01/24 05:33:23;;;;;;;11.37;7.17;;;;;1.30;97496.00;;;;4998837;28;20548;-72
2024/01/24 05:36:12;;;;;;;17.60;9.30;;;;;1.30;97496.00;;;;5002848;28;20417;-72
2024/01/24 05:39:01;;;;;;;26.50;12.80;;;;;1.60;97520.00;;;;5002205;28;20934;-72
2024/01/24 05:41:51;;;;;;;14.13;9.30;;;;;1.20;97523.00;;;;4992751;28;20470;-72
2024/01/24 05:44:40;;;;;;;26.67;12.90;;;;;1.40;97522.00;;;;4998499;28;20473;-70
2024/01/24 05:47:29;;;;;;;17.13;10.03;;;;;0.60;97503.00;;;;4998716;28;20829;-72
2024/01/24 05:50:19;;;;;;;21.30;12.50;;;;;0.80;97499.00;;;;5003651;28;20457;-70
2024/01/24 05:53:08;;;;;;;17.50;10.93;;;;;1.60;97505.00;;;;4991055;28;20450;-72
2024/01/24 05:55:57;;;;;;;17.53;10.63;;;;;1.90;97518.00;;;;4998443;28;20430;-69
2024/01/24 05:58:47;;;;;;;30.37;14.80;;;;;2.00;97516.00;;;;5003324;28;20441;-71
2024/01/24 06:01:36;;;;;;;23.70;16.10;;;;;2.20;97529.00;;;;5003625;28;20455;-71
2024/01/24 06:04:25;;;;;;;19.63;15.57;;;;;2.20;97505.00;;;;5001529;28;20981;-71
2024/01/24 06:07:16;;;;;;;18.10;14.87;;;;;1.60;97503.00;;;;4992336;28;20963;-71
2024/01/24 06:10:05;;;;;;;24.93;19.33;;;;;1.60;97494.00;;;;4998537;28;21001;-71
2024/01/24 06:12:55;;;;;;;22.93;17.17;;;;;2.00;97477.00;;;;4994386;28;20843;-69
2024/01/24 06:15:44;;;;;;;26.83;19.13;;;;;1.50;97476.00;;;;4998764;28;20818;-71
2024/01/24 06:18:33;;;;;;;27.17;19.23;;;;;1.50;97464.00;;;;5002731;28;20432;-71
2024/01/24 06:21:22;;;;;;;22.50;19.37;;;;;1.60;97478.00;;;;5000946;28;20451;-71
2024/01/24 06:24:12;;;;;;;30.50;22.70;;;;;1.40;97475.00;;;;5002010;28;20470;-71
2024/01/24 06:27:02;;;;;;;29.40;21.33;;;;;1.60;97465.00;;;;5005306;28;20441;-71
2024/01/24 06:29:51;;;;;;;24.10;20.50;;;;;1.80;97457.00;;;;5003502;28;20453;-72
2024/01/24 06:32:40;;;;;;;36.70;25.10;;;;;2.20;97455.00;;;;4993653;28;20446;-71
2024/01/24 06:35:31;;;;;;;24.10;20.27;;;;;2.20;97461.00;;;;4997591;28;20434;-70
2024/01/24 06:38:20;;;;;;;21.07;19.00;;;;;1.30;97450.00;;;;4999399;28;20448;-72
2024/01/24 06:41:13;;;;;;;23.03;17.70;;;;;1.50;97444.00;;;;5007633;28;20433;-70
2024/01/24 06:44:05;;;;;;;27.87;22.57;;;;;1.90;97459.00;;;;4997914;28;20440;-71
2024/01/24 06:46:54;;;;;;;24.20;21.37;;;;;1.00;97441.00;;;;4997183;28;20456;-70
2024/01/24 06:49:43;;;;;;;38.53;24.97;;;;;1.80;97442.00;;;;4999318;28;20447;-72
2024/01/24 06:52:32;;;;;;;32.23;25.50;;;;;2.40;97434.00;;;;5001349;28;21042;-73
2024/01/24 06:55:21;;;;;;;34.77;29.17;;;;;2.60;97454.00;;;;5002684;28;20872;-72
2024/01/24 06:58:12;;;;;;;35.07;30.00;;;;;2.40;97455.00;;;;4999337;28;20440;-72
2024/01/24 07:01:01;;;;;;;35.90;30.97;;;;;2.60;97453.00;;;;5003001;28;20430;-72
2024/01/24 07:03:50;;;;;;;42.50;33.60;;;;;2.90;97456.00;;;;5001486;28;20571;-72
2024/01/24 07:06:39;;;;;;;56.23;40.80;;;;;2.50;97446.00;;;;4998817;28;21163;-73
2024/01/24 07:09:29;;;;;;;51.97;38.80;;;;;2.30;97448.00;;;;5000240;28;20434;-70
2024/01/24 07:12:20;;;;;;;72.03;47.17;;;;;2.80;97454.00;;;;4998003;28;20457;-71
2024/01/24 07:15:11;;;;;;;133.80;81.73;;;;;3.00;97446.00;;;;4960406;28;20432;-70
2024/01/24 07:18:00;;;;;;;223.33;121.37;;;;;3.20;97453.00;;;;4949729;28;20542;-71
2024/01/24 07:20:49;;;;;;;152.47;87.97;;;;;2.90;97463.00;;;;4942350;28;20937;-70
2024/01/24 07:23:39;;;;;;;228.43;121.63;;;;;2.60;97444.00;;;;4950834;28;20429;-71
2024/01/24 07:26:28;;;;;;;94.97;51.10;;;;;2.80;97450.00;;;;4972374;28;20475;-71
2024/01/24 07:29:17;;;;;;;97.47;51.83;;;;;2.60;97434.00;;;;5031710;28;20425;-70
2024/01/24 07:32:08;;;;;;;160.60;81.20;;;;;2.90;97414.00;;;;4997388;28;20498;-71
2024/01/24 07:34:57;;;;;;;132.80;58.07;;;;;3.00;97398.00;;;;4954421;28;20417;-71
2024/01/24 07:37:47;;;;;;;266.77;76.97;;;;;3.00;97414.00;;;;4961463;28;20433;-70
2024/01/24 07:40:37;;;;;;;417.60;138.73;;;;;3.50;97429.00;;;;4947501;28;20482;-71
2024/01/24 07:43:26;;;;;;;331.67;81.20;;;;;2.80;97427.00;;;;4943097;28;21974;-70
2024/01/24 07:46:15;;;;;;;412.73;135.87;;;;;2.30;97401.00;;;;4950750;28;20466;-69
2024/01/24 07:49:06;;;;;;;371.63;105.50;;;;;3.10;97405.00;;;;4947556;28;20438;-70
2024/01/24 07:51:55;;;;;;;414.27;140.57;;;;;3.10;97392.00;;;;4947487;28;20853;-71
2024/01/24 07:54:44;;;;;;;397.77;120.70;;;;;3.10;97394.00;;;;4944578;28;20427;-69
2024/01/24 07:57:34;;;;;;;419.70;143.33;;;;;3.00;97392.00;;;;4948330;28;20871;-70
2024/01/24 08:00:23;;;;;;;411.33;138.80;;;;;3.60;97399.00;;;;4946684;28;20585;-72
2024/01/24 08:03:12;;;;;;;418.33;149.30;;;;;3.60;97389.00;;;;4946740;28;20469;-70
2024/01/24 08:06:03;;;;;;;398.37;134.20;;;;;3.30;97388.00;;;;4946591;28;20469;-74
2024/01/24 08:08:52;;;;;;;414.40;152.83;;;;;3.40;97391.00;;;;4946937;28;20437;-73
2024/01/24 08:11:42;;;;;;;427.13;170.63;;;;;3.80;97366.00;;;;4946183;28;21179;-73
2024/01/24 08:14:32;;;;;;;416.07;153.87;;;;;3.30;97360.00;;;;4945522;28;20579;-75
2024/01/24 08:17:21;;;;;;;398.63;145.50;;;;;4.00;97355.00;;;;4947847;28;21053;-74
2024/01/24 08:20:11;;;;;;;427.80;149.70;;;;;4.20;97368.00;;;;4946069;28;20445;-71
2024/01/24 08:23:02;;;;;;;407.80;136.13;;;;;3.90;97362.00;;;;4946401;28;21257;-72
2024/01/24 08:25:51;;;;;;;424.30;150.37;;;;;4.00;97356.00;;;;4950840;28;20461;-73
2024/01/24 08:28:42;;;;;;;425.67;164.67;;;;;3.20;97348.00;;;;4946777;28;20430;-73
2024/01/24 08:31:31;;;;;;;432.73;163.10;;;;;4.20;97353.00;;;;4943888;28;20540;-72
2024/01/24 08:34:21;;;;;;;411.40;137.80;;;;;4.30;97327.00;;;;4944239;28;20441;-71
2024/01/24 08:37:10;;;;;;;319.83;77.47;;;;;3.60;97341.00;;;;4966227;28;20541;-71
2024/01/24 08:40:00;;;;;;;316.13;76.27;;;;;4.40;97311.00;;;;4967528;28;20444;-71
2024/01/24 08:42:49;;;;;;;318.93;74.90;;;;;3.80;97320.00;;;;4992596;28;20850;-71
2024/01/24 08:45:38;;;;;;;416.73;149.63;;;;;4.40;97333.00;;;;4946912;28;20461;-72
2024/01/24 08:48:28;;;;;;;373.00;110.93;;;;;5.00;97321.00;;;;4946498;28;21626;-76
2024/01/24 08:51:18;;;;;;;418.93;145.37;;;;;5.20;97326.00;;;;4947545;28;20453;-72
2024/01/24 08:54:08;;;;;;;322.03;78.93;;;;;5.10;97328.00;;;;5001064;28;20631;-72
2024/01/24 08:56:58;;;;;;;327.47;83.07;;;;;5.30;97322.00;;;;5003181;28;21158;-72
2024/01/24 08:59:48;;;;;;;118.40;61.33;;;;;5.70;97322.00;;;;4994930;28;20445;-72
2024/01/24 09:02:37;;;;;;;423.77;149.27;;;;;5.90;97315.00;;;;4965110;28;20476;-72
2024/01/24 09:05:27;;;;;;;378.67;115.67;;;;;5.00;97319.00;;;;4946818;28;20473;-74
2024/01/24 09:08:16;;;;;;;403.53;144.40;;;;;6.10;97311.00;;;;4954787;28;20504;-72
2024/01/24 09:11:07;;;;;;;383.13;118.17;;;;;5.40;97311.00;;;;4950880;28;21911;-74
2024/01/24 09:13:57;;;;;;;414.43;142.17;;;;;6.00;97309.00;;;;4948966;28;20807;-75
2024/01/24 09:16:47;;;;;;;373.83;112.20;;;;;6.50;97323.00;;;;4951344;28;22095;-75
2024/01/24 09:19:36;;;;;;;418.20;143.80;;;;;6.70;97318.00;;;;4951545;28;20441;-74
2024/01/24 09:22:25;;;;;;;426.50;149.50;;;;;6.10;97294.00;;;;4951131;28;20501;-73
2024/01/24 09:25:15;;;;;;;414.03;151.97;;;;;7.00;97281.00;;;;4954279;28;20440;-72
2024/01/24 09:28:08;;;;;;;412.17;142.97;;;;;6.60;97273.00;;;;4951607;28;20460;-72
2024/01/24 09:30:59;;;;;;;413.53;144.20;;;;;6.90;97270.00;;;;4950643;28;20506;-73
2024/01/24 09:33:48;;;;;;;431.37;153.37;;;;;7.50;97261.00;;;;4949279;28;20869;-72
2024/01/24 09:36:38;;;;;;;379.67;113.87;;;;;7.80;97261.00;;;;4946857;28;22442;-74
2024/01/24 09:39:27;;;;;;;327.37;79.63;;;;;6.80;97263.00;;;;5004319;28;20957;-71
2024/01/24 09:42:21;;;;;;;342.37;83.93;;;;;7.20;97257.00;;;;5004692;28;20984;-72
2024/01/24 09:45:11;;;;;;;417.83;142.07;;;;;7.60;97259.00;;;;4951595;28;20435;-71
2024/01/24 09:48:02;;;;;;;329.77;79.80;;;;;7.60;97245.00;;;;5006764;28;20425;-74
2024/01/24 09:50:51;;;;;;;417.13;142.87;;;;;8.10;97255.00;;;;4998517;28;20444;-71
2024/01/24 09:53:40;;;;;;;342.63;85.50;;;;;8.20;97225.00;;;;4999146;28;20428;-71
2024/01/24 09:56:30;;;;;;;330.43;79.30;;;;;8.50;97239.00;;;;4985114;28;20433;-75
2024/01/24 09:59:20;;;;;;;329.10;78.80;;;;;8.70;97236.00;;;;5005429;28;20501;-74
2024/01/24 10:02:09;;;;;;;337.00;85.30;;;;;9.10;97221.00;;;;5008486;28;20810;-73
2024/01/24 10:05:00;;;;;;;331.50;83.13;;;;;8.60;97173.00;;;;4996016;28;20445;-74
2024/01/24 10:07:49;;;;;;;338.87;88.23;;;;;9.50;97203.00;;;;5004131;28;20468;-72
2024/01/24 10:10:38;;;;;;;433.87;160.70;;;;;9.90;97181.00;;;;4981497;28;20456;-73
2024/01/24 10:13:27;;;;;;;334.77;88.50;;;;;9.90;97198.00;;;;5004629;28;20460;-73
2024/01/24 10:16:18;;;;;;;335.50;90.70;;;;;10.30;97209.00;;;;4998802;28;20429;-72
2024/01/24 10:19:07;;;;;;;436.27;167.60;;;;;10.20;97189.00;;;;4958487;28;20981;-71
2024/01/24 10:21:58;;;;;;;408.37;141.13;;;;;10.80;97185.00;;;;4962043;28;21739;-71
2024/01/24 10:24:47;;;;;;;384.77;125.07;;;;;11.20;97178.00;;;;4960958;28;20206;-72
2024/01/24 10:27:37;;;;;;;337.33;90.07;;;;;11.30;97185.00;;;;4992525;28;20233;-72
2024/01/24 10:30:27;;;;;;;339.17;98.27;;;;;11.10;97177.00;;;;4995456;28;20586;-71
2024/01/24 10:33:16;;;;;;;336.63;92.50;;;;;10.50;97168.00;;;;4996962;28;20247;-72
2024/01/24 10:36:08;;;;;;;337.47;97.00;;;;;11.80;97171.00;;;;4995434;28;20217;-71
2024/01/24 10:39:03;;;;;;;338.33;93.83;;;;;12.30;97180.00;;;;4975085;28;20199;-71
2024/01/24 10:41:55;;;;;;;344.17;98.73;;;;;12.60;97171.00;;;;5004893;27;20303;-71
2024/01/24 10:44:45;;;;;;;439.93;174.43;;;;;12.80;97166.00;;;;4959114;28;20206;-72
2024/01/24 10:47:35;;;;;;;418.80;157.50;;;;;13.20;97153.00;;;;4949803;28;20230;-72
2024/01/24 10:50:24;;;;;;;425.70;165.43;;;;;13.80;97140.00;;;;4946590;28;20799;-72
2024/01/24 10:53:14;;;;;;;452.00;184.70;;;;;14.20;97142.00;;;;4950375;28;20222;-72
2024/01/24 10:56:06;;;;;;;435.97;179.07;;;;;13.80;97144.00;;;;4944819;28;20702;-71
2024/01/24 10:58:57;;;;;;;446.77;189.90;;;;;14.20;97108.00;;;;4945806;28;20254;-71
2024/01/24 11:01:46;;;;;;;451.00;191.80;;;;;15.00;97096.00;;;;4946846;28;20234;-71
2024/01/24 11:04:36;;;;;;;440.60;188.33;;;;;14.90;97106.00;;;;5049482;22;20374;-86
2024/01/24 11:07:30;;;;;;;454.93;203.07;;;;;15.30;97100.00;;;;5066888;27;20230;-86
2024/01/24 11:10:23;;;;;;;410.17;167.03;;;;;15.80;97103.00;;;;5066485;27;20565;-86
2024/01/24 11:13:14;;;;;;;468.17;217.37;;;;;15.80;97089.00;;;;5071495;27;20199;-84
2024/01/24 11:16:31;;;;;;;436.20;190.60;;;;;15.80;97074.00;;;;5067157;27;20727;-85
2024/01/24 11:19:21;;;;;;;364.57;138.73;;;;;15.70;97078.00;;;;5088442;27;20205;-84
2024/01/24 11:22:11;;;;;;;471.43;220.33;;;;;16.00;97066.00;;;;5070813;27;20630;-84
2024/01/24 11:25:01;;;;;;;458.90;221.23;;;;;15.70;97081.00;;;;5066510;27;20738;-85
2024/01/24 11:27:57;;;;;;;462.00;218.87;;;;;15.20;97088.00;;;;5070441;27;20234;-85
2024/01/24 11:30:48;;;;;;;453.57;214.60;;;;;15.10;97051.00;;;;5073282;27;20301;-85
2024/01/24 11:33:38;;;;;;;367.30;143.70;;;;;14.60;97047.00;;;;5081952;27;21682;-85
2024/01/24 11:36:27;;;;;;;398.23;163.63;;;;;14.60;97066.00;;;;5102375;27;20237;-85
2024/01/24 11:39:37;;;;;;;361.03;136.47;;;;;14.60;97080.00;;;;5113365;27;20202;-84
2024/01/24 11:42:42;;;;;;;371.60;144.73;;;;;14.30;97073.00;;;;5113555;27;20206;-84
2024/01/24 11:45:32;;;;;;;387.53;148.13;;;;;14.30;97086.00;;;;5087391;27;20593;-85
2024/01/24 11:48:22;;;;;;;454.47;205.17;;;;;14.10;97061.00;;;;5069804;27;20234;-84
2024/01/24 11:51:14;;;;;;;391.07;149.97;;;;;14.00;97055.00;;;;5065504;27;20207;-85
2024/01/24 11:54:04;;;;;;;459.87;210.50;;;;;13.90;97048.00;;;;5074223;27;20213;-84
2024/01/24 11:56:55;;;;;;;360.67;129.43;;;;;13.60;97034.00;;;;5092703;27;20241;-85
2024/01/24 11:59:44;;;;;;;379.67;139.07;;;;;13.10;97023.00;;;;5111114;27;20217;-84
2024/01/24 12:02:33;;;;;;;352.10;121.93;;;;;13.00;97017.00;;;;5101523;27;20199;-84
2024/01/24 12:05:24;;;;;;;358.63;121.70;;;;;12.40;97027.00;;;;5102514;27;20230;-84
2024/01/24 12:08:13;;;;;;;350.30;112.67;;;;;12.70;96993.00;;;;5108146;28;20229;-84
2024/01/24 12:11:03;;;;;;;371.07;130.73;;;;;12.30;97005.00;;;;5109419;27;20198;-83
2024/01/24 12:13:52;;;;;;;356.73;115.80;;;;;12.30;96979.00;;;;5111394;27;20202;-84
2024/01/24 12:16:41;;;;;;;355.00;115.53;;;;;12.40;97020.00;;;;5112195;27;20206;-84
2024/01/24 12:19:30;;;;;;;350.03;110.30;;;;;12.80;96986.00;;;;5108648;27;20572;-85
2024/01/24 12:22:21;;;;;;;361.83;114.43;;;;;13.30;96987.00;;;;5095232;27;20199;-84
2024/01/24 12:25:11;;;;;;;359.20;111.83;;;;;13.30;96969.00;;;;5107789;28;20226;-84
2024/01/24 12:28:01;;;;;;;350.97;110.87;;;;;14.00;96960.00;;;;5107719;28;20222;-85
2024/01/24 12:30:50;;;;;;;363.37;121.80;;;;;13.90;96983.00;;;;5094000;27;20202;-84
2024/01/24 12:33:39;;;;;;;356.87;116.67;;;;;13.70;96965.00;;;;5111764;28;20198;-85
2024/01/24 12:36:28;;;;;;;355.73;119.87;;;;;13.80;96984.00;;;;5105533;28;20236;-85
2024/01/24 12:39:26;;;;;;;357.83;122.77;;;;;13.60;96983.00;;;;5109813;27;20209;-84
2024/01/24 12:42:15;;;;;;;356.83;114.73;;;;;13.50;96948.00;;;;5112547;28;20206;-85
2024/01/24 12:45:05;;;;;;;361.10;123.00;;;;;13.60;96923.00;;;;5114580;28;20218;-84
2024/01/24 12:47:55;;;;;;;363.50;123.47;;;;;14.50;96912.00;;;;5106352;28;20224;-84
2024/01/24 12:50:44;;;;;;;361.43;126.53;;;;;14.10;96936.00;;;;5105698;28;20207;-85
2024/01/24 12:53:34;;;;;;;357.53;125.83;;;;;15.20;96947.00;;;;5107770;28;20201;-84
2024/01/24 12:56:25;;;;;;;447.40;197.00;;;;;14.80;96908.00;;;;5074094;28;20443;-85
2024/01/24 12:59:15;;;;;;;449.40;202.53;;;;;16.30;96941.00;;;;5065654;28;20530;-85
2024/01/24 13:02:04;;;;;;;452.67;212.63;;;;;16.40;96888.00;;;;5068956;28;20210;-86
2024/01/24 13:04:53;;;;;;;452.67;215.70;;;;;16.00;96922.00;;;;5062579;28;20226;-85
2024/01/24 13:07:43;;;;;;;480.67;231.73;;;;;16.70;96904.00;;;;5069279;28;20618;-85
2024/01/24 13:10:34;;;;;;;428.00;192.17;;;;;16.50;96928.00;;;;5061504;28;20208;-85
2024/01/24 13:13:24;;;;;;;453.83;220.63;;;;;17.50;96870.00;;;;5069864;28;20199;-85
2024/01/24 13:16:14;;;;;;;472.83;229.57;;;;;18.60;96892.00;;;;5065654;28;20234;-85
2024/01/24 13:19:03;;;;;;;488.63;254.20;;;;;17.20;96871.00;;;;5070012;28;20293;-86
2024/01/24 13:21:52;;;;;;;451.57;232.17;;;;;17.90;96908.00;;;;5065134;28;20202;-84
2024/01/24 13:24:42;;;;;;;486.63;262.77;;;;;18.10;96856.00;;;;5073524;28;20312;-82
2024/01/24 13:27:31;;;;;;;403.37;210.10;;;;;18.70;96878.00;;;;5061829;28;20226;-82
2024/01/24 13:30:21;;;;;;;486.30;280.17;;;;;19.70;96860.00;;;;5071264;27;20251;-82
2024/01/24 13:33:11;;;;;;;404.63;224.43;;;;;19.60;96867.00;;;;5062964;27;20265;-82
2024/01/24 13:36:00;;;;;;;480.27;295.63;;;;;20.30;96846.00;;;;5067657;27;20280;-82
2024/01/24 13:38:49;;;;;;;486.70;309.87;;;;;20.70;96874.00;;;;5101208;27;20199;-83
2024/01/24 13:41:38;;;;;;;465.10;308.07;;;;;20.80;96842.00;;;;5084291;27;20592;-82
2024/01/24 13:44:27;;;;;;;379.93;250.60;;;;;20.00;96852.00;;;;5102414;28;20198;-83
2024/01/24 13:47:19;;;;;;;385.37;274.93;;;;;20.50;96868.00;;;;5098347;27;20207;-83
2024/01/24 13:50:09;;;;;;;400.20;282.83;;;;;21.00;96855.00;;;;5100595;27;20211;-82